sensor_id;sensor_type;location;lat;lon;timestamp;P1;durP1;ratioP1;P2;durP2;ratioP2
21299;SDS011;10809;49.476;11.016;2024-03-17T00:00:31;0.77;;;0.70;;
21299;SDS011;10809;49.476;11.016;2024-03-17T00:03:03;0.70;;;0.70;;
21299;SDS011;10809;49.476;11.016;2024-03-17T00:05:34;0.87;;;0.70;;
21299;SDS011;10809;49.476;11.016;2024-03-17T00:08:05;1.17;;;0.70;;
21299;SDS011;10809;49.476;11.016;2024-03-17T00:10:36;0.93;;;0.90;;
21299;SDS011;10809;49.476;11.016;2024-03-17T00:13:07;0.73;;;0.60;;
21299;SDS011;10809;49.476;11.016;2024-03-17T00:15:38;1.57;;;1.10;;
21299;SDS011;10809;49.476;11.016;2024-03-17T00:18:14;1.03;;;0.80;;
21299;SDS011;10809;49.476;11.016;2024-03-17T00:20:45;1.97;;;0.57;;
21299;SDS011;10809;49.476;11.016;2024-03-17T00:23:15;0.93;;;0.60;;
21299;SDS011;10809;49.476;11.016;2024-03-17T00:25:46;1.33;;;0.90;;
21299;SDS011;10809;49.476;11.016;2024-03-17T00:28:17;1.90;;;0.70;;
21299;SDS011;10809;49.476;11.016;2024-03-17T00:30:47;1.00;;;0.87;;
21299;SDS011;10809;49.476;11.016;2024-03-17T00:33:18;1.43;;;0.93;;
21299;SDS011;10809;49.476;11.016;2024-03-17T00:35:49;3.37;;;1.37;;
21299;SDS011;10809;49.476;11.016;2024-03-17T00:38:23;2.87;;;1.70;;
21299;SDS011;10809;49.476;11.016;2024-03-17T00:40:54;5.70;;;3.30;;
21299;SDS011;10809;49.476;11.016;2024-03-17T00:43:24;6.83;;;3.87;;
21299;SDS011;10809;49.476;11.016;2024-03-17T00:45:55;7.47;;;4.33;;
21299;SDS011;10809;49.476;11.016;2024-03-17T00:48:26;8.77;;;4.27;;
21299;SDS011;10809;49.476;11.016;2024-03-17T00:50:57;9.77;;;5.13;;
21299;SDS011;10809;49.476;11.016;2024-03-17T00:53:28;9.07;;;4.53;;
21299;SDS011;10809;49.476;11.016;2024-03-17T00:55:59;7.90;;;4.03;;
21299;SDS011;10809;49.476;11.016;2024-03-17T00:58:32;7.50;;;4.30;;
21299;SDS011;10809;49.476;11.016;2024-03-17T01:01:03;7.97;;;4.70;;
21299;SDS011;10809;49.476;11.016;2024-03-17T01:03:34;7.40;;;4.53;;
21299;SDS011;10809;49.476;11.016;2024-03-17T01:06:05;7.77;;;4.30;;
21299;SDS011;10809;49.476;11.016;2024-03-17T01:08:36;8.23;;;4.67;;
21299;SDS011;10809;49.476;11.016;2024-03-17T01:11:06;7.67;;;4.20;;
21299;SDS011;10809;49.476;11.016;2024-03-17T01:13:38;7.30;;;4.13;;
21299;SDS011;10809;49.476;11.016;2024-03-17T01:16:12;8.50;;;4.23;;
21299;SDS011;10809;49.476;11.016;2024-03-17T01:18:43;6.03;;;3.73;;
21299;SDS011;10809;49.476;11.016;2024-03-17T01:21:15;6.47;;;3.50;;
21299;SDS011;10809;49.476;11.016;2024-03-17T01:23:47;6.00;;;3.73;;
21299;SDS011;10809;49.476;11.016;2024-03-17T01:26:19;5.00;;;3.87;;
21299;SDS011;10809;49.476;11.016;2024-03-17T01:28:49;5.47;;;3.43;;
21299;SDS011;10809;49.476;11.016;2024-03-17T01:31:20;4.83;;;2.90;;
21299;SDS011;10809;49.476;11.016;2024-03-17T01:33:50;4.63;;;3.00;;
21299;SDS011;10809;49.476;11.016;2024-03-17T01:36:21;4.07;;;2.27;;
21299;SDS011;10809;49.476;11.016;2024-03-17T01:38:52;4.60;;;2.70;;
21299;SDS011;10809;49.476;11.016;2024-03-17T01:41:26;3.27;;;2.93;;
21299;SDS011;10809;49.476;11.016;2024-03-17T01:43:56;3.20;;;2.20;;
21299;SDS011;10809;49.476;11.016;2024-03-17T01:46:29;3.17;;;2.10;;
21299;SDS011;10809;49.476;11.016;2024-03-17T01:48:59;3.07;;;2.37;;
21299;SDS011;10809;49.476;11.016;2024-03-17T01:51:30;3.80;;;2.80;;
21299;SDS011;10809;49.476;11.016;2024-03-17T01:54:01;3.50;;;2.67;;
21299;SDS011;10809;49.476;11.016;2024-03-17T01:56:36;5.33;;;2.87;;
21299;SDS011;10809;49.476;11.016;2024-03-17T01:59:07;4.77;;;2.83;;
21299;SDS011;10809;49.476;11.016;2024-03-17T02:01:39;4.60;;;2.63;;
21299;SDS011;10809;49.476;11.016;2024-03-17T02:04:11;4.93;;;3.00;;
21299;SDS011;10809;49.476;11.016;2024-03-17T02:06:41;3.97;;;2.80;;
21299;SDS011;10809;49.476;11.016;2024-03-17T02:09:12;4.07;;;2.90;;
21299;SDS011;10809;49.476;11.016;2024-03-17T02:11:43;4.20;;;3.10;;
21299;SDS011;10809;49.476;11.016;2024-03-17T02:14:13;5.53;;;3.20;;
21299;SDS011;10809;49.476;11.016;2024-03-17T02:16:45;3.77;;;2.83;;
21299;SDS011;10809;49.476;11.016;2024-03-17T02:19:16;3.10;;;2.80;;
21299;SDS011;10809;49.476;11.016;2024-03-17T02:21:46;5.13;;;2.27;;
21299;SDS011;10809;49.476;11.016;2024-03-17T02:24:17;3.70;;;2.10;;
21299;SDS011;10809;49.476;11.016;2024-03-17T02:26:48;5.03;;;1.60;;
21299;SDS011;10809;49.476;11.016;2024-03-17T02:29:18;1.40;;;1.30;;
21299;SDS011;10809;49.476;11.016;2024-03-17T02:31:49;1.07;;;1.00;;
21299;SDS011;10809;49.476;11.016;2024-03-17T02:34:20;1.23;;;1.13;;
21299;SDS011;10809;49.476;11.016;2024-03-17T02:36:50;1.53;;;1.10;;
21299;SDS011;10809;49.476;11.016;2024-03-17T02:39:21;1.23;;;1.00;;
21299;SDS011;10809;49.476;11.016;2024-03-17T02:42:04;1.07;;;0.90;;
21299;SDS011;10809;49.476;11.016;2024-03-17T02:44:36;1.00;;;0.77;;
21299;SDS011;10809;49.476;11.016;2024-03-17T02:47:09;2.27;;;0.93;;
21299;SDS011;10809;49.476;11.016;2024-03-17T02:49:40;1.40;;;0.90;;
21299;SDS011;10809;49.476;11.016;2024-03-17T02:52:13;2.00;;;0.90;;
21299;SDS011;10809;49.476;11.016;2024-03-17T02:54:44;1.10;;;0.80;;
21299;SDS011;10809;49.476;11.016;2024-03-17T02:57:15;1.17;;;0.60;;
21299;SDS011;10809;49.476;11.016;2024-03-17T02:59:46;0.60;;;0.60;;
21299;SDS011;10809;49.476;11.016;2024-03-17T03:02:17;1.17;;;0.80;;
21299;SDS011;10809;49.476;11.016;2024-03-17T03:04:48;1.47;;;0.67;;
21299;SDS011;10809;49.476;11.016;2024-03-17T03:07:19;0.80;;;0.80;;
21299;SDS011;10809;49.476;11.016;2024-03-17T03:09:50;0.77;;;0.67;;
21299;SDS011;10809;49.476;11.016;2024-03-17T03:12:21;0.57;;;0.57;;
21299;SDS011;10809;49.476;11.016;2024-03-17T03:14:52;0.90;;;0.90;;
21299;SDS011;10809;49.476;11.016;2024-03-17T03:17:22;0.73;;;0.73;;
21299;SDS011;10809;49.476;11.016;2024-03-17T03:19:54;0.87;;;0.87;;
21299;SDS011;10809;49.476;11.016;2024-03-17T03:22:25;0.77;;;0.77;;
21299;SDS011;10809;49.476;11.016;2024-03-17T03:24:56;1.63;;;1.03;;
21299;SDS011;10809;49.476;11.016;2024-03-17T03:27:28;2.60;;;1.50;;
21299;SDS011;10809;49.476;11.016;2024-03-17T03:29:58;2.03;;;1.50;;
21299;SDS011;10809;49.476;11.016;2024-03-17T03:32:30;3.53;;;2.37;;
21299;SDS011;10809;49.476;11.016;2024-03-17T03:35:00;3.13;;;2.27;;
21299;SDS011;10809;49.476;11.016;2024-03-17T03:37:31;3.47;;;2.20;;
21299;SDS011;10809;49.476;11.016;2024-03-17T03:40:02;3.43;;;1.80;;
21299;SDS011;10809;49.476;11.016;2024-03-17T03:42:46;1.90;;;1.70;;
21299;SDS011;10809;49.476;11.016;2024-03-17T03:45:17;1.50;;;1.40;;
21299;SDS011;10809;49.476;11.016;2024-03-17T03:47:47;2.00;;;1.70;;
21299;SDS011;10809;49.476;11.016;2024-03-17T03:50:20;1.77;;;1.67;;
21299;SDS011;10809;49.476;11.016;2024-03-17T03:52:51;1.73;;;1.63;;
21299;SDS011;10809;49.476;11.016;2024-03-17T03:55:22;1.70;;;1.60;;
21299;SDS011;10809;49.476;11.016;2024-03-17T03:57:54;1.73;;;1.63;;
21299;SDS011;10809;49.476;11.016;2024-03-17T04:00:24;1.40;;;1.30;;
21299;SDS011;10809;49.476;11.016;2024-03-17T04:02:59;3.70;;;1.70;;
21299;SDS011;10809;49.476;11.016;2024-03-17T04:05:31;2.60;;;2.03;;
21299;SDS011;10809;49.476;11.016;2024-03-17T04:08:04;1.50;;;1.40;;
21299;SDS011;10809;49.476;11.016;2024-03-17T04:10:35;2.43;;;1.90;;
21299;SDS011;10809;49.476;11.016;2024-03-17T04:13:06;2.50;;;1.87;;
21299;SDS011;10809;49.476;11.016;2024-03-17T04:15:37;1.70;;;1.50;;
21299;SDS011;10809;49.476;11.016;2024-03-17T04:18:07;1.70;;;1.60;;
21299;SDS011;10809;49.476;11.016;2024-03-17T04:20:39;1.50;;;1.40;;
21299;SDS011;10809;49.476;11.016;2024-03-17T04:23:10;1.90;;;1.80;;
21299;SDS011;10809;49.476;11.016;2024-03-17T04:25:44;1.60;;;1.50;;
21299;SDS011;10809;49.476;11.016;2024-03-17T04:28:15;1.70;;;1.60;;
21299;SDS011;10809;49.476;11.016;2024-03-17T04:30:46;2.30;;;1.50;;
21299;SDS011;10809;49.476;11.016;2024-03-17T04:33:17;1.53;;;1.40;;
21299;SDS011;10809;49.476;11.016;2024-03-17T04:35:48;1.33;;;1.23;;
21299;SDS011;10809;49.476;11.016;2024-03-17T04:38:19;1.33;;;1.23;;
21299;SDS011;10809;49.476;11.016;2024-03-17T04:40:50;1.63;;;1.53;;
21299;SDS011;10809;49.476;11.016;2024-03-17T04:43:21;1.83;;;1.67;;
21299;SDS011;10809;49.476;11.016;2024-03-17T04:45:58;1.97;;;1.70;;
21299;SDS011;10809;49.476;11.016;2024-03-17T04:48:34;2.67;;;2.30;;
21299;SDS011;10809;49.476;11.016;2024-03-17T04:51:05;2.13;;;1.90;;
21299;SDS011;10809;49.476;11.016;2024-03-17T04:53:35;2.17;;;1.67;;
21299;SDS011;10809;49.476;11.016;2024-03-17T04:56:06;1.83;;;1.40;;
21299;SDS011;10809;49.476;11.016;2024-03-17T04:58:37;1.70;;;1.60;;
21299;SDS011;10809;49.476;11.016;2024-03-17T05:01:08;1.73;;;1.47;;
21299;SDS011;10809;49.476;11.016;2024-03-17T05:03:39;3.23;;;2.50;;
21299;SDS011;10809;49.476;11.016;2024-03-17T05:06:10;4.67;;;3.17;;
21299;SDS011;10809;49.476;11.016;2024-03-17T05:08:41;3.87;;;2.83;;
21299;SDS011;10809;49.476;11.016;2024-03-17T05:11:11;3.23;;;2.50;;
21299;SDS011;10809;49.476;11.016;2024-03-17T05:13:44;2.10;;;2.00;;
21299;SDS011;10809;49.476;11.016;2024-03-17T05:16:14;1.90;;;1.80;;
21299;SDS011;10809;49.476;11.016;2024-03-17T05:18:45;2.20;;;2.00;;
21299;SDS011;10809;49.476;11.016;2024-03-17T05:21:19;4.07;;;2.00;;
21299;SDS011;10809;49.476;11.016;2024-03-17T05:23:49;2.27;;;1.77;;
21299;SDS011;10809;49.476;11.016;2024-03-17T05:26:23;2.10;;;1.90;;
21299;SDS011;10809;49.476;11.016;2024-03-17T05:28:57;2.87;;;2.00;;
21299;SDS011;10809;49.476;11.016;2024-03-17T05:31:28;2.90;;;2.60;;
21299;SDS011;10809;49.476;11.016;2024-03-17T05:33:59;4.93;;;2.93;;
21299;SDS011;10809;49.476;11.016;2024-03-17T05:36:30;4.23;;;2.80;;
21299;SDS011;10809;49.476;11.016;2024-03-17T05:39:02;3.63;;;3.10;;
21299;SDS011;10809;49.476;11.016;2024-03-17T05:41:33;2.73;;;2.50;;
21299;SDS011;10809;49.476;11.016;2024-03-17T05:44:04;8.10;;;5.47;;
21299;SDS011;10809;49.476;11.016;2024-03-17T05:46:35;4.77;;;3.90;;
21299;SDS011;10809;49.476;11.016;2024-03-17T05:49:05;2.87;;;2.67;;
21299;SDS011;10809;49.476;11.016;2024-03-17T05:51:41;2.03;;;1.90;;
21299;SDS011;10809;49.476;11.016;2024-03-17T05:54:12;1.90;;;1.77;;
21299;SDS011;10809;49.476;11.016;2024-03-17T05:56:42;1.30;;;1.20;;
21299;SDS011;10809;49.476;11.016;2024-03-17T05:59:13;1.80;;;1.23;;
21299;SDS011;10809;49.476;11.016;2024-03-17T06:01:43;1.20;;;1.10;;
21299;SDS011;10809;49.476;11.016;2024-03-17T06:04:15;1.20;;;1.03;;
21299;SDS011;10809;49.476;11.016;2024-03-17T06:06:47;1.53;;;1.23;;
21299;SDS011;10809;49.476;11.016;2024-03-17T06:09:19;1.30;;;1.20;;
21299;SDS011;10809;49.476;11.016;2024-03-17T06:11:50;1.00;;;0.90;;
21299;SDS011;10809;49.476;11.016;2024-03-17T06:14:24;1.33;;;1.00;;
21299;SDS011;10809;49.476;11.016;2024-03-17T06:16:54;1.13;;;0.90;;
21299;SDS011;10809;49.476;11.016;2024-03-17T06:19:25;1.33;;;1.23;;
21299;SDS011;10809;49.476;11.016;2024-03-17T06:21:55;4.10;;;2.83;;
21299;SDS011;10809;49.476;11.016;2024-03-17T06:24:28;2.60;;;2.40;;
21299;SDS011;10809;49.476;11.016;2024-03-17T06:26:59;1.90;;;1.67;;
21299;SDS011;10809;49.476;11.016;2024-03-17T06:29:32;1.97;;;1.87;;
21299;SDS011;10809;49.476;11.016;2024-03-17T06:32:03;1.43;;;1.30;;
21299;SDS011;10809;49.476;11.016;2024-03-17T06:34:34;1.53;;;1.20;;
21299;SDS011;10809;49.476;11.016;2024-03-17T06:37:05;1.60;;;1.50;;
21299;SDS011;10809;49.476;11.016;2024-03-17T06:39:35;1.37;;;1.27;;
21299;SDS011;10809;49.476;11.016;2024-03-17T06:42:06;2.53;;;1.53;;
21299;SDS011;10809;49.476;11.016;2024-03-17T06:44:37;2.90;;;1.70;;
21299;SDS011;10809;49.476;11.016;2024-03-17T06:47:07;2.50;;;1.40;;
21299;SDS011;10809;49.476;11.016;2024-03-17T06:49:38;2.60;;;1.90;;
21299;SDS011;10809;49.476;11.016;2024-03-17T06:52:09;1.43;;;1.33;;
21299;SDS011;10809;49.476;11.016;2024-03-17T06:54:40;1.50;;;1.40;;
21299;SDS011;10809;49.476;11.016;2024-03-17T06:57:13;1.33;;;1.23;;
21299;SDS011;10809;49.476;11.016;2024-03-17T06:59:44;1.20;;;1.10;;
21299;SDS011;10809;49.476;11.016;2024-03-17T07:02:22;1.43;;;1.30;;
21299;SDS011;10809;49.476;11.016;2024-03-17T07:04:56;1.73;;;1.63;;
21299;SDS011;10809;49.476;11.016;2024-03-17T07:07:27;2.00;;;1.60;;
21299;SDS011;10809;49.476;11.016;2024-03-17T07:09:58;1.87;;;1.50;;
21299;SDS011;10809;49.476;11.016;2024-03-17T07:12:28;2.10;;;1.90;;
21299;SDS011;10809;49.476;11.016;2024-03-17T07:14:59;2.70;;;1.87;;
21299;SDS011;10809;49.476;11.016;2024-03-17T07:17:29;2.07;;;1.77;;
21299;SDS011;10809;49.476;11.016;2024-03-17T07:20:00;2.60;;;2.30;;
21299;SDS011;10809;49.476;11.016;2024-03-17T07:22:31;3.73;;;2.40;;
21299;SDS011;10809;49.476;11.016;2024-03-17T07:25:02;3.33;;;2.30;;
21299;SDS011;10809;49.476;11.016;2024-03-17T07:27:32;2.20;;;2.00;;
21299;SDS011;10809;49.476;11.016;2024-03-17T07:30:03;2.53;;;2.33;;
21299;SDS011;10809;49.476;11.016;2024-03-17T07:32:35;3.03;;;2.73;;
21299;SDS011;10809;49.476;11.016;2024-03-17T07:35:06;2.60;;;2.40;;
21299;SDS011;10809;49.476;11.016;2024-03-17T07:37:36;2.50;;;2.20;;
21299;SDS011;10809;49.476;11.016;2024-03-17T07:40:09;1.97;;;1.87;;
21299;SDS011;10809;49.476;11.016;2024-03-17T07:42:46;2.83;;;2.30;;
21299;SDS011;10809;49.476;11.016;2024-03-17T07:45:17;2.27;;;2.03;;
21299;SDS011;10809;49.476;11.016;2024-03-17T07:47:50;2.63;;;2.37;;
21299;SDS011;10809;49.476;11.016;2024-03-17T07:50:21;2.60;;;2.33;;
21299;SDS011;10809;49.476;11.016;2024-03-17T07:52:52;2.63;;;2.37;;
21299;SDS011;10809;49.476;11.016;2024-03-17T07:55:23;2.43;;;2.13;;
21299;SDS011;10809;49.476;11.016;2024-03-17T07:57:53;3.33;;;2.43;;
21299;SDS011;10809;49.476;11.016;2024-03-17T08:00:24;3.37;;;2.87;;
21299;SDS011;10809;49.476;11.016;2024-03-17T08:02:54;2.27;;;2.07;;
21299;SDS011;10809;49.476;11.016;2024-03-17T08:05:25;2.70;;;2.43;;
21299;SDS011;10809;49.476;11.016;2024-03-17T08:07:56;2.93;;;2.63;;
21299;SDS011;10809;49.476;11.016;2024-03-17T08:10:26;3.10;;;2.70;;
21299;SDS011;10809;49.476;11.016;2024-03-17T08:12:57;3.57;;;3.00;;
21299;SDS011;10809;49.476;11.016;2024-03-17T08:15:28;5.03;;;2.90;;
21299;SDS011;10809;49.476;11.016;2024-03-17T08:18:00;3.00;;;2.70;;
21299;SDS011;10809;49.476;11.016;2024-03-17T08:20:30;3.90;;;2.97;;
21299;SDS011;10809;49.476;11.016;2024-03-17T08:23:01;2.40;;;2.20;;
21299;SDS011;10809;49.476;11.016;2024-03-17T08:25:32;2.77;;;2.13;;
21299;SDS011;10809;49.476;11.016;2024-03-17T08:28:03;3.50;;;2.43;;
21299;SDS011;10809;49.476;11.016;2024-03-17T08:30:34;2.60;;;2.40;;
21299;SDS011;10809;49.476;11.016;2024-03-17T08:33:05;2.80;;;2.60;;
21299;SDS011;10809;49.476;11.016;2024-03-17T08:35:38;2.78;;;2.58;;
21299;SDS011;10809;49.476;11.016;2024-03-17T08:38:08;2.30;;;1.95;;
21299;SDS011;10809;49.476;11.016;2024-03-17T08:40:39;2.92;;;2.60;;
21299;SDS011;10809;49.476;11.016;2024-03-17T08:43:13;2.33;;;2.13;;
21299;SDS011;10809;49.476;11.016;2024-03-17T08:45:44;3.10;;;2.25;;
21299;SDS011;10809;49.476;11.016;2024-03-17T08:48:15;3.30;;;2.78;;
21299;SDS011;10809;49.476;11.016;2024-03-17T08:50:55;2.20;;;2.05;;
21299;SDS011;10809;49.476;11.016;2024-03-17T08:53:27;3.00;;;2.55;;
21299;SDS011;10809;49.476;11.016;2024-03-17T08:55:58;2.47;;;2.13;;
21299;SDS011;10809;49.476;11.016;2024-03-17T08:58:29;3.78;;;2.17;;
21299;SDS011;10809;49.476;11.016;2024-03-17T09:01:07;3.50;;;2.53;;
21299;SDS011;10809;49.476;11.016;2024-03-17T09:03:38;2.40;;;2.20;;
21299;SDS011;10809;49.476;11.016;2024-03-17T09:06:16;2.70;;;2.30;;
21299;SDS011;10809;49.476;11.016;2024-03-17T09:08:48;2.45;;;2.25;;
21299;SDS011;10809;49.476;11.016;2024-03-17T09:11:19;2.25;;;2.05;;
21299;SDS011;10809;49.476;11.016;2024-03-17T09:13:54;2.50;;;2.30;;
21299;SDS011;10809;49.476;11.016;2024-03-17T09:16:25;2.17;;;1.98;;
21299;SDS011;10809;49.476;11.016;2024-03-17T09:18:56;3.47;;;1.85;;
21299;SDS011;10809;49.476;11.016;2024-03-17T09:21:26;2.05;;;1.77;;
21299;SDS011;10809;49.476;11.016;2024-03-17T09:23:57;2.22;;;2.03;;
21299;SDS011;10809;49.476;11.016;2024-03-17T09:26:30;1.80;;;1.70;;
21299;SDS011;10809;49.476;11.016;2024-03-17T09:29:01;1.48;;;1.38;;
21299;SDS011;10809;49.476;11.016;2024-03-17T09:31:32;1.38;;;1.27;;
21299;SDS011;10809;49.476;11.016;2024-03-17T09:34:05;2.00;;;1.20;;
21299;SDS011;10809;49.476;11.016;2024-03-17T09:36:36;1.13;;;1.13;;
21299;SDS011;10809;49.476;11.016;2024-03-17T09:39:07;1.80;;;1.40;;
21299;SDS011;10809;49.476;11.016;2024-03-17T09:41:38;2.10;;;1.90;;
21299;SDS011;10809;49.476;11.016;2024-03-17T09:44:09;1.60;;;1.50;;
21299;SDS011;10809;49.476;11.016;2024-03-17T09:46:43;2.08;;;1.88;;
21299;SDS011;10809;49.476;11.016;2024-03-17T09:49:14;1.77;;;1.60;;
21299;SDS011;10809;49.476;11.016;2024-03-17T09:51:46;1.20;;;1.15;;
21299;SDS011;10809;49.476;11.016;2024-03-17T09:54:19;2.05;;;1.40;;
21299;SDS011;10809;49.476;11.016;2024-03-17T09:56:50;1.75;;;1.23;;
21299;SDS011;10809;49.476;11.016;2024-03-17T09:59:21;1.40;;;1.30;;
21299;SDS011;10809;49.476;11.016;2024-03-17T10:01:52;1.87;;;1.70;;
21299;SDS011;10809;49.476;11.016;2024-03-17T10:04:32;1.97;;;1.63;;
21299;SDS011;10809;49.476;11.016;2024-03-17T10:07:04;1.30;;;1.20;;
21299;SDS011;10809;49.476;11.016;2024-03-17T10:09:34;2.00;;;1.20;;
21299;SDS011;10809;49.476;11.016;2024-03-17T10:12:06;1.43;;;1.10;;
21299;SDS011;10809;49.476;11.016;2024-03-17T10:14:59;2.03;;;1.30;;
21299;SDS011;10809;49.476;11.016;2024-03-17T10:17:31;1.90;;;1.70;;
21299;SDS011;10809;49.476;11.016;2024-03-17T10:20:18;1.63;;;1.23;;
21299;SDS011;10809;49.476;11.016;2024-03-17T10:25:32;3.20;;;1.73;;
21299;SDS011;10809;49.476;11.016;2024-03-17T10:28:04;1.53;;;1.43;;
21299;SDS011;10809;49.476;11.016;2024-03-17T10:30:57;2.93;;;1.57;;
21299;SDS011;10809;49.476;11.016;2024-03-17T10:33:29;2.23;;;1.83;;
21299;SDS011;10809;49.476;11.016;2024-03-17T10:36:00;1.47;;;1.37;;
21299;SDS011;10809;49.476;11.016;2024-03-17T10:38:32;1.87;;;1.67;;
21299;SDS011;10809;49.476;11.016;2024-03-17T10:41:04;2.50;;;1.90;;
21299;SDS011;10809;49.476;11.016;2024-03-17T10:43:36;1.60;;;1.50;;
21299;SDS011;10809;49.476;11.016;2024-03-17T10:46:08;3.40;;;1.67;;
21299;SDS011;10809;49.476;11.016;2024-03-17T10:48:42;1.85;;;1.75;;
21299;SDS011;10809;49.476;11.016;2024-03-17T10:51:16;2.03;;;1.87;;
21299;SDS011;10809;49.476;11.016;2024-03-17T10:53:48;1.63;;;1.53;;
21299;SDS011;10809;49.476;11.016;2024-03-17T10:56:23;1.80;;;1.50;;
21299;SDS011;10809;49.476;11.016;2024-03-17T10:58:56;2.37;;;1.80;;
21299;SDS011;10809;49.476;11.016;2024-03-17T11:01:33;2.53;;;2.00;;
21299;SDS011;10809;49.476;11.016;2024-03-17T11:04:04;2.10;;;1.90;;
21299;SDS011;10809;49.476;11.016;2024-03-17T11:06:35;1.83;;;1.53;;
21299;SDS011;10809;49.476;11.016;2024-03-17T11:09:15;2.10;;;1.90;;
21299;SDS011;10809;49.476;11.016;2024-03-17T11:11:46;2.58;;;1.92;;
21299;SDS011;10809;49.476;11.016;2024-03-17T11:14:17;1.60;;;1.50;;
21299;SDS011;10809;49.476;11.016;2024-03-17T11:16:52;2.15;;;1.98;;
21299;SDS011;10809;49.476;11.016;2024-03-17T11:19:23;2.30;;;2.10;;
21299;SDS011;10809;49.476;11.016;2024-03-17T11:21:54;2.57;;;2.30;;
21299;SDS011;10809;49.476;11.016;2024-03-17T11:24:26;2.07;;;1.87;;
21299;SDS011;10809;49.476;11.016;2024-03-17T11:26:57;2.47;;;1.80;;
21299;SDS011;10809;49.476;11.016;2024-03-17T11:29:29;2.63;;;1.92;;
21299;SDS011;10809;49.476;11.016;2024-03-17T11:32:23;3.33;;;2.20;;
21299;SDS011;10809;49.476;11.016;2024-03-17T11:35:13;1.77;;;1.63;;
21299;SDS011;10809;49.476;11.016;2024-03-17T11:37:44;2.13;;;1.57;;
21299;SDS011;10809;49.476;11.016;2024-03-17T11:40:24;1.73;;;1.63;;
21299;SDS011;10809;49.476;11.016;2024-03-17T11:43:02;2.30;;;1.97;;
21299;SDS011;10809;49.476;11.016;2024-03-17T11:45:35;2.65;;;2.45;;
21299;SDS011;10809;49.476;11.016;2024-03-17T11:48:09;1.88;;;1.63;;
21299;SDS011;10809;49.476;11.016;2024-03-17T11:50:44;2.03;;;1.75;;
21299;SDS011;10809;49.476;11.016;2024-03-17T11:53:15;2.10;;;1.95;;
21299;SDS011;10809;49.476;11.016;2024-03-17T11:55:49;1.83;;;1.70;;
21299;SDS011;10809;49.476;11.016;2024-03-17T11:58:19;3.50;;;1.85;;
21299;SDS011;10809;49.476;11.016;2024-03-17T12:00:52;2.08;;;1.85;;
21299;SDS011;10809;49.476;11.016;2024-03-17T12:03:22;3.25;;;2.03;;
21299;SDS011;10809;49.476;11.016;2024-03-17T12:05:53;4.90;;;2.08;;
21299;SDS011;10809;49.476;11.016;2024-03-17T12:08:24;2.25;;;1.63;;
21299;SDS011;10809;49.476;11.016;2024-03-17T12:10:55;2.17;;;1.98;;
21299;SDS011;10809;49.476;11.016;2024-03-17T12:13:32;4.97;;;4.18;;
21299;SDS011;10809;49.476;11.016;2024-03-17T12:16:13;5.05;;;3.15;;
21299;SDS011;10809;49.476;11.016;2024-03-17T12:18:44;2.60;;;2.40;;
21299;SDS011;10809;49.476;11.016;2024-03-17T12:21:15;4.03;;;2.57;;
21299;SDS011;10809;49.476;11.016;2024-03-17T12:23:46;2.77;;;2.20;;
21299;SDS011;10809;49.476;11.016;2024-03-17T12:26:18;3.10;;;2.80;;
21299;SDS011;10809;49.476;11.016;2024-03-17T12:28:49;3.03;;;2.37;;
21299;SDS011;10809;49.476;11.016;2024-03-17T12:31:20;1.87;;;1.73;;
21299;SDS011;10809;49.476;11.016;2024-03-17T12:33:51;2.43;;;2.10;;
21299;SDS011;10809;49.476;11.016;2024-03-17T12:36:21;2.00;;;1.80;;
21299;SDS011;10809;49.476;11.016;2024-03-17T12:38:58;3.23;;;1.90;;
21299;SDS011;10809;49.476;11.016;2024-03-17T12:41:41;2.40;;;1.83;;
21299;SDS011;10809;49.476;11.016;2024-03-17T12:44:21;1.80;;;1.70;;
21299;SDS011;10809;49.476;11.016;2024-03-17T12:46:59;2.00;;;1.90;;
21299;SDS011;10809;49.476;11.016;2024-03-17T12:49:31;2.10;;;2.00;;
21299;SDS011;10809;49.476;11.016;2024-03-17T12:52:27;1.93;;;1.83;;
21299;SDS011;10809;49.476;11.016;2024-03-17T12:55:15;2.20;;;1.53;;
21299;SDS011;10809;49.476;11.016;2024-03-17T12:58:08;1.80;;;1.57;;
21299;SDS011;10809;49.476;11.016;2024-03-17T13:00:58;2.13;;;1.90;;
21299;SDS011;10809;49.476;11.016;2024-03-17T13:03:31;2.30;;;2.10;;
21299;SDS011;10809;49.476;11.016;2024-03-17T13:06:04;2.60;;;2.10;;
21299;SDS011;10809;49.476;11.016;2024-03-17T13:08:38;2.00;;;1.80;;
21299;SDS011;10809;49.476;11.016;2024-03-17T13:11:09;1.77;;;1.67;;
21299;SDS011;10809;49.476;11.016;2024-03-17T13:13:40;2.00;;;1.73;;
21299;SDS011;10809;49.476;11.016;2024-03-17T13:16:11;1.70;;;1.60;;
21299;SDS011;10809;49.476;11.016;2024-03-17T13:18:46;1.70;;;1.60;;
21299;SDS011;10809;49.476;11.016;2024-03-17T13:21:17;1.60;;;1.50;;
21299;SDS011;10809;49.476;11.016;2024-03-17T13:23:49;2.00;;;1.80;;
21299;SDS011;10809;49.476;11.016;2024-03-17T13:26:19;1.60;;;1.50;;
21299;SDS011;10809;49.476;11.016;2024-03-17T13:28:50;2.17;;;1.63;;
21299;SDS011;10809;49.476;11.016;2024-03-17T13:31:20;1.97;;;1.67;;
21299;SDS011;10809;49.476;11.016;2024-03-17T13:33:51;1.75;;;1.65;;
21299;SDS011;10809;49.476;11.016;2024-03-17T13:36:22;2.88;;;2.22;;
21299;SDS011;10809;49.476;11.016;2024-03-17T13:38:53;4.80;;;3.87;;
21299;SDS011;10809;49.476;11.016;2024-03-17T13:41:23;2.87;;;2.57;;
21299;SDS011;10809;49.476;11.016;2024-03-17T13:43:54;2.20;;;2.00;;
21299;SDS011;10809;49.476;11.016;2024-03-17T13:46:27;2.20;;;1.98;;
21299;SDS011;10809;49.476;11.016;2024-03-17T13:48:58;2.47;;;2.20;;
21299;SDS011;10809;49.476;11.016;2024-03-17T13:51:38;2.67;;;2.20;;
21299;SDS011;10809;49.476;11.016;2024-03-17T13:54:09;2.80;;;1.50;;
21299;SDS011;10809;49.476;11.016;2024-03-17T13:56:40;2.03;;;1.83;;
21299;SDS011;10809;49.476;11.016;2024-03-17T13:59:11;4.18;;;1.58;;
21299;SDS011;10809;49.476;11.016;2024-03-17T14:01:42;2.38;;;1.75;;
21299;SDS011;10809;49.476;11.016;2024-03-17T14:04:14;4.85;;;3.63;;
21299;SDS011;10809;49.476;11.016;2024-03-17T14:06:47;6.65;;;4.95;;
21299;SDS011;10809;49.476;11.016;2024-03-17T14:09:20;4.22;;;3.65;;
21299;SDS011;10809;49.476;11.016;2024-03-17T14:11:52;3.10;;;2.80;;
21299;SDS011;10809;49.476;11.016;2024-03-17T14:14:23;2.50;;;1.83;;
21299;SDS011;10809;49.476;11.016;2024-03-17T14:16:54;2.17;;;2.05;;
21299;SDS011;10809;49.476;11.016;2024-03-17T14:19:25;2.22;;;2.08;;
21299;SDS011;10809;49.476;11.016;2024-03-17T14:21:56;2.05;;;1.80;;
21299;SDS011;10809;49.476;11.016;2024-03-17T14:24:27;1.90;;;1.80;;
21299;SDS011;10809;49.476;11.016;2024-03-17T14:26:59;3.33;;;2.40;;
21299;SDS011;10809;49.476;11.016;2024-03-17T14:29:29;2.40;;;2.20;;
21299;SDS011;10809;49.476;11.016;2024-03-17T14:32:04;4.93;;;2.33;;
21299;SDS011;10809;49.476;11.016;2024-03-17T14:34:35;1.90;;;1.80;;
21299;SDS011;10809;49.476;11.016;2024-03-17T14:37:07;3.43;;;2.33;;
21299;SDS011;10809;49.476;11.016;2024-03-17T14:39:37;3.47;;;3.17;;
21299;SDS011;10809;49.476;11.016;2024-03-17T14:42:08;5.60;;;3.40;;
21299;SDS011;10809;49.476;11.016;2024-03-17T14:44:39;3.80;;;3.23;;
21299;SDS011;10809;49.476;11.016;2024-03-17T14:47:09;3.00;;;2.70;;
21299;SDS011;10809;49.476;11.016;2024-03-17T14:49:41;3.30;;;2.77;;
21299;SDS011;10809;49.476;11.016;2024-03-17T14:52:13;2.83;;;2.63;;
21299;SDS011;10809;49.476;11.016;2024-03-17T14:54:43;2.63;;;2.30;;
21299;SDS011;10809;49.476;11.016;2024-03-17T14:57:14;2.20;;;1.93;;
21299;SDS011;10809;49.476;11.016;2024-03-17T14:59:48;2.53;;;1.90;;
21299;SDS011;10809;49.476;11.016;2024-03-17T15:02:18;2.53;;;2.00;;
21299;SDS011;10809;49.476;11.016;2024-03-17T15:04:49;2.27;;;2.07;;